createdAt,value
2018-02-11T00:00:43.489Z,1004.46
2018-02-11T00:01:43.478Z,1004.50
2018-02-11T00:02:43.431Z,1004.40
2018-02-11T00:03:43.493Z,1004.40
2018-02-11T00:04:43.369Z,1004.33
2018-02-11T00:05:43.401Z,1004.32
2018-02-11T00:06:43.306Z,1004.33
2018-02-11T00:07:43.314Z,1004.26
2018-02-11T00:08:43.244Z,1004.22
2018-02-11T00:09:43.325Z,1004.19
2018-02-11T00:10:43.181Z,1004.14
2018-02-11T00:11:43.238Z,1004.08
2018-02-11T00:12:43.129Z,1004.09
2018-02-11T00:13:43.151Z,1004.04
2018-02-11T00:14:43.060Z,1004.01
2018-02-11T00:15:43.062Z,1004.03
2018-02-11T00:16:42.992Z,1003.99
2018-02-11T00:17:43.074Z,1003.91
2018-02-11T00:18:42.930Z,1003.95
2018-02-11T00:19:42.991Z,1003.92
2018-02-11T00:20:42.876Z,1003.88
2018-02-11T00:21:42.902Z,1003.84
2018-02-11T00:22:42.809Z,1003.80
2018-02-11T00:23:42.818Z,1003.79
2018-02-11T00:24:42.747Z,1003.77
2018-02-11T00:25:42.825Z,1003.76
2018-02-11T00:26:42.686Z,1003.71
2018-02-11T00:27:42.738Z,1003.72
2018-02-11T00:28:42.626Z,1003.66
2018-02-11T00:29:42.645Z,1003.64
2018-02-11T00:30:42.560Z,1003.60
2018-02-11T00:31:42.559Z,1003.59
2018-02-11T00:32:42.497Z,1003.52
2018-02-11T00:33:42.573Z,1003.52
2018-02-11T00:34:42.434Z,1003.50
2018-02-11T00:35:42.492Z,1003.47
2018-02-11T00:36:42.375Z,1003.42
2018-02-11T00:37:42.397Z,1003.47
2018-02-11T00:38:42.312Z,1003.45
2018-02-11T00:39:42.306Z,1003.38
2018-02-11T00:40:42.247Z,1003.37
2018-02-11T00:41:42.325Z,1003.41
2018-02-11T00:42:42.186Z,1003.25
2018-02-11T00:43:42.238Z,1003.26
2018-02-11T00:44:42.124Z,1003.25
2018-02-11T00:45:42.143Z,1003.19
2018-02-11T00:46:42.066Z,1003.18
2018-02-11T00:47:42.057Z,1003.22
2018-02-11T00:48:41.999Z,1003.16
2018-02-11T00:49:42.070Z,1003.16
2018-02-11T00:50:41.943Z,1003.09
2018-02-11T00:51:41.980Z,1003.07
2018-02-11T00:52:41.874Z,1003.03
2018-02-11T00:53:41.894Z,1003.09
2018-02-11T00:54:41.849Z,1003.04
2018-02-11T00:55:41.803Z,1002.95
2018-02-11T00:56:41.750Z,1002.96
2018-02-11T00:57:41.817Z,1002.92
2018-02-11T00:58:41.689Z,1002.90
2018-02-11T00:59:41.730Z,1002.87
2018-02-11T01:00:41.629Z,1002.82
2018-02-11T01:01:41.645Z,1002.84
2018-02-11T01:02:41.574Z,1002.78
2018-02-11T01:03:41.552Z,1002.78
2018-02-11T01:04:41.498Z,1002.79
2018-02-11T01:05:41.567Z,1002.76
2018-02-11T01:06:41.439Z,1002.72
2018-02-11T01:07:41.479Z,1002.69
2018-02-11T01:08:41.377Z,1002.71
2018-02-11T01:09:41.390Z,1002.66
2018-02-11T01:10:41.317Z,1002.65
2018-02-11T01:11:41.305Z,1002.55
2018-02-11T01:12:41.255Z,1002.59
2018-02-11T01:13:41.314Z,1002.47
2018-02-11T01:14:41.192Z,1002.42
2018-02-11T01:15:41.227Z,1002.46
2018-02-11T01:16:41.130Z,1002.38
2018-02-11T01:17:41.141Z,1002.33
2018-02-11T01:18:41.065Z,1002.34
2018-02-11T01:19:41.155Z,1002.29
2018-02-11T01:20:41.007Z,1002.26
2018-02-11T01:21:41.066Z,1002.23
2018-02-11T01:22:40.948Z,1002.16
2018-02-11T01:23:40.976Z,1002.19
2018-02-11T01:24:40.892Z,1002.14
2018-02-11T01:25:40.887Z,1002.12
2018-02-11T01:26:40.821Z,1002.08
2018-02-11T01:27:40.900Z,1002.07
2018-02-11T01:28:40.759Z,1002.08
2018-02-11T01:29:40.812Z,1002.00
2018-02-11T01:30:40.696Z,1001.94
2018-02-11T01:31:40.723Z,1001.96
2018-02-11T01:32:40.634Z,1001.94
2018-02-11T01:33:40.634Z,1001.81
2018-02-11T01:34:40.568Z,1001.82
2018-02-11T01:35:40.646Z,1001.81
2018-02-11T01:36:40.512Z,1001.80
2018-02-11T01:37:40.559Z,1001.69
2018-02-11T01:38:40.449Z,1001.76
2018-02-11T01:39:40.472Z,1001.66
2018-02-11T01:40:40.385Z,1001.70
2018-02-11T01:41:40.391Z,1001.65
2018-02-11T01:42:40.325Z,1001.53
2018-02-11T01:43:40.397Z,1001.58
2018-02-11T01:44:40.261Z,1001.59
2018-02-11T01:45:40.309Z,1001.55
2018-02-11T01:46:40.206Z,1001.51
2018-02-11T01:47:40.218Z,1001.53
2018-02-11T01:48:40.137Z,1001.49
2018-02-11T01:49:40.130Z,1001.41
2018-02-11T01:50:40.074Z,1001.39
2018-02-11T01:51:40.144Z,1001.36
2018-02-11T01:52:40.015Z,1001.35
2018-02-11T01:53:40.057Z,1001.30
2018-02-11T01:54:39.954Z,1001.27
2018-02-11T01:55:39.971Z,1001.24
2018-02-11T01:56:39.890Z,1001.22
2018-02-11T01:57:39.884Z,1001.17
2018-02-11T01:58:39.831Z,1001.15
2018-02-11T01:59:39.891Z,1001.14
2018-02-11T02:00:39.765Z,1001.06
2018-02-11T02:01:39.800Z,1001.04
2018-02-11T02:02:39.703Z,1001.01
2018-02-11T02:03:39.715Z,1001.01
2018-02-11T02:04:39.639Z,1000.96
2018-02-11T02:05:39.631Z,1000.95
2018-02-11T02:06:39.603Z,1000.91
2018-02-11T02:07:39.642Z,1000.86
2018-02-11T02:08:39.509Z,1000.83
2018-02-11T02:09:39.562Z,1000.78
2018-02-11T02:10:39.459Z,1000.72
2018-02-11T02:11:39.465Z,1000.72
2018-02-11T02:12:39.394Z,1000.71
2018-02-11T02:13:39.478Z,1000.69
2018-02-11T02:14:39.336Z,1000.67
2018-02-11T02:15:39.392Z,1000.66
2018-02-11T02:16:39.271Z,1000.62
2018-02-11T02:17:39.302Z,1000.59
2018-02-11T02:18:39.210Z,1000.57
2018-02-11T02:19:39.213Z,1000.55
2018-02-11T02:20:39.146Z,1000.51
2018-02-11T02:21:39.227Z,1000.47
2018-02-11T02:22:39.088Z,1000.45
2018-02-11T02:23:39.147Z,1000.44
2018-02-11T02:24:39.024Z,1000.33
2018-02-11T02:25:39.052Z,1000.34
2018-02-11T02:26:38.962Z,1000.29
2018-02-11T02:27:38.961Z,1000.23
2018-02-11T02:28:38.903Z,1000.26
2018-02-11T02:29:38.979Z,1000.18
2018-02-11T02:30:38.843Z,1000.14
2018-02-11T02:31:38.889Z,1000.11
2018-02-11T02:32:38.777Z,1000.06
2018-02-11T02:33:38.801Z,1000.09
2018-02-11T02:34:38.717Z,1000.03
2018-02-11T02:35:38.716Z,1000.02
2018-02-11T02:36:38.654Z,999.99
2018-02-11T02:37:38.725Z,999.95
2018-02-11T02:38:38.591Z,999.91
2018-02-11T02:39:38.633Z,999.90
2018-02-11T02:40:38.525Z,999.88
2018-02-11T02:41:38.550Z,999.88
2018-02-11T02:42:38.470Z,999.88
2018-02-11T02:43:38.453Z,999.88
2018-02-11T02:44:38.407Z,999.78
2018-02-11T02:45:38.473Z,999.78
2018-02-11T02:46:38.346Z,999.73
2018-02-11T02:47:38.382Z,999.73
2018-02-11T02:48:38.283Z,999.75
2018-02-11T02:49:38.296Z,999.72
2018-02-11T02:50:38.220Z,999.66
2018-02-11T02:51:38.206Z,999.63
2018-02-11T02:52:38.165Z,999.60
2018-02-11T02:53:38.219Z,999.57
2018-02-11T02:54:38.106Z,999.53
2018-02-11T02:55:38.131Z,999.50
2018-02-11T02:56:38.039Z,999.53
2018-02-11T02:57:38.043Z,999.51
2018-02-11T02:58:37.977Z,999.43
2018-02-11T02:59:38.057Z,999.36
2018-02-11T03:00:37.916Z,999.38
2018-02-11T03:01:37.967Z,999.36
2018-02-11T03:02:37.856Z,999.32
2018-02-11T03:03:37.884Z,999.30
2018-02-11T03:04:37.797Z,999.30
2018-02-11T03:05:37.792Z,999.27
2018-02-11T03:06:37.730Z,999.20
2018-02-11T03:07:37.805Z,999.14
2018-02-11T03:08:37.668Z,999.11
2018-02-11T03:09:37.715Z,999.08
2018-02-11T03:10:37.601Z,998.98
2018-02-11T03:11:37.633Z,998.97
2018-02-11T03:12:37.547Z,998.92
2018-02-11T03:13:37.537Z,998.88
2018-02-11T03:14:37.489Z,998.87
2018-02-11T03:15:37.554Z,998.82
2018-02-11T03:16:37.424Z,998.79
2018-02-11T03:17:37.465Z,998.70
2018-02-11T03:18:37.369Z,998.68
2018-02-11T03:19:37.377Z,998.69
2018-02-11T03:20:37.303Z,998.65
2018-02-11T03:21:37.286Z,998.65
2018-02-11T03:22:37.240Z,998.65
2018-02-11T03:23:37.304Z,998.65
2018-02-11T03:24:37.178Z,998.55
2018-02-11T03:25:37.213Z,998.58
2018-02-11T03:26:37.118Z,998.54
2018-02-11T03:27:37.129Z,998.50
2018-02-11T03:28:37.056Z,998.45
2018-02-11T03:29:37.141Z,998.46
2018-02-11T03:30:36.994Z,998.39
2018-02-11T03:31:37.051Z,998.36
2018-02-11T03:32:36.934Z,998.37
2018-02-11T03:33:36.961Z,998.33
2018-02-11T03:34:36.874Z,998.30
2018-02-11T03:35:36.873Z,998.21
2018-02-11T03:36:36.812Z,998.27
2018-02-11T03:37:36.886Z,998.25
2018-02-11T03:38:36.750Z,998.21
2018-02-11T03:39:36.801Z,998.20
2018-02-11T03:40:36.694Z,998.19
2018-02-11T03:41:36.712Z,998.17
2018-02-11T03:42:36.631Z,998.15
2018-02-11T03:43:36.622Z,998.11
2018-02-11T03:44:36.567Z,998.10
2018-02-11T03:45:36.636Z,998.11
2018-02-11T03:46:36.510Z,998.08
2018-02-11T03:47:36.549Z,998.08
2018-02-11T03:48:36.447Z,998.06
2018-02-11T03:49:36.458Z,998.07
2018-02-11T03:50:36.385Z,998.06
2018-02-11T03:51:36.370Z,998.04
2018-02-11T03:52:36.327Z,998.02
2018-02-11T03:53:36.383Z,998.01
2018-02-11T03:54:36.264Z,997.99
2018-02-11T03:55:36.296Z,997.97
2018-02-11T03:56:36.200Z,997.91
2018-02-11T03:57:36.199Z,997.88
2018-02-11T03:58:36.146Z,997.85
2018-02-11T03:59:36.218Z,997.84
2018-02-11T04:00:36.084Z,997.83
2018-02-11T04:01:36.133Z,997.78
2018-02-11T04:02:36.019Z,997.83
2018-02-11T04:03:36.044Z,997.81
2018-02-11T04:04:35.961Z,997.84
2018-02-11T04:05:35.956Z,997.73
2018-02-11T04:06:35.901Z,997.78
2018-02-11T04:07:35.968Z,997.76
2018-02-11T04:08:35.837Z,997.68
2018-02-11T04:09:35.885Z,997.64
2018-02-11T04:10:35.780Z,997.67
2018-02-11T04:11:35.792Z,997.64
2018-02-11T04:12:35.717Z,997.66
2018-02-11T04:13:35.705Z,997.60
2018-02-11T04:14:35.656Z,997.53
2018-02-11T04:15:35.718Z,997.48
2018-02-11T04:16:35.595Z,997.43
2018-02-11T04:17:35.629Z,997.40
2018-02-11T04:18:35.534Z,997.38
2018-02-11T04:19:35.541Z,997.41
2018-02-11T04:20:35.474Z,997.39
2018-02-11T04:21:35.554Z,997.38
2018-02-11T04:22:35.415Z,997.30
2018-02-11T04:23:35.465Z,997.29
2018-02-11T04:24:35.352Z,997.29
2018-02-11T04:25:35.377Z,997.11
2018-02-11T04:26:35.290Z,997.22
2018-02-11T04:27:35.289Z,997.20
2018-02-11T04:28:35.231Z,997.18
2018-02-11T04:29:35.301Z,997.14
2018-02-11T04:30:35.170Z,997.15
2018-02-11T04:31:35.219Z,997.09
2018-02-11T04:32:35.114Z,997.01
2018-02-11T04:33:35.128Z,997.07
2018-02-11T04:34:35.059Z,997.08
2018-02-11T04:35:35.041Z,997.06
2018-02-11T04:36:34.988Z,996.98
2018-02-11T04:37:35.052Z,996.98
2018-02-11T04:38:34.932Z,997.05
2018-02-11T04:39:34.970Z,997.09
2018-02-11T04:40:34.865Z,996.94
2018-02-11T04:41:34.884Z,996.92
2018-02-11T04:42:34.805Z,996.94
2018-02-11T04:43:34.899Z,997.05
2018-02-11T04:44:34.742Z,996.97
2018-02-11T04:45:34.805Z,997.03
2018-02-11T04:46:34.683Z,996.98
2018-02-11T04:47:34.716Z,996.97
2018-02-11T04:48:34.620Z,996.94
2018-02-11T04:49:34.628Z,997.06
2018-02-11T04:50:34.614Z,997.04
2018-02-11T04:51:34.640Z,996.94
2018-02-11T04:52:34.500Z,996.87
2018-02-11T04:53:34.553Z,996.92
2018-02-11T04:54:34.441Z,996.98
2018-02-11T04:55:34.461Z,996.93
2018-02-11T04:56:34.381Z,996.95
2018-02-11T04:57:34.372Z,996.95
2018-02-11T04:58:34.324Z,996.97
2018-02-11T04:59:34.387Z,997.01
2018-02-11T05:00:34.257Z,996.91
2018-02-11T05:01:34.300Z,996.83
2018-02-11T05:02:34.200Z,996.82
2018-02-11T05:03:34.212Z,996.85
2018-02-11T05:04:34.137Z,996.80
2018-02-11T05:05:34.120Z,996.77
2018-02-11T05:06:34.074Z,996.68
2018-02-11T05:07:34.136Z,996.75
2018-02-11T05:08:34.016Z,996.69
2018-02-11T05:09:34.049Z,996.73
2018-02-11T05:10:33.954Z,996.59
2018-02-11T05:11:33.958Z,996.71
2018-02-11T05:12:33.894Z,996.68
2018-02-11T05:13:33.972Z,996.72
2018-02-11T05:14:33.834Z,996.58
2018-02-11T05:15:33.885Z,996.52
2018-02-11T05:16:33.771Z,996.51
2018-02-11T05:17:33.855Z,996.64
2018-02-11T05:18:33.714Z,996.59
2018-02-11T05:19:33.706Z,996.61
2018-02-11T05:20:33.659Z,996.58
2018-02-11T05:21:33.720Z,996.71
2018-02-11T05:22:33.590Z,996.60
2018-02-11T05:23:33.634Z,996.55
2018-02-11T05:24:33.532Z,996.62
2018-02-11T05:25:33.544Z,996.53
2018-02-11T05:26:33.476Z,996.55
2018-02-11T05:27:33.455Z,996.49
2018-02-11T05:28:33.408Z,996.49
2018-02-11T05:29:33.468Z,996.50
2018-02-11T05:30:33.351Z,996.42
2018-02-11T05:31:33.382Z,996.38
2018-02-11T05:32:33.292Z,996.41
2018-02-11T05:33:33.287Z,996.39
2018-02-11T05:34:33.232Z,996.46
2018-02-11T05:35:33.307Z,996.36
2018-02-11T05:36:33.169Z,996.37
2018-02-11T05:37:33.218Z,996.37
2018-02-11T05:38:33.108Z,996.29
2018-02-11T05:39:33.130Z,996.30
2018-02-11T05:40:33.049Z,996.31
2018-02-11T05:41:33.041Z,996.39
2018-02-11T05:42:32.999Z,996.31
2018-02-11T05:43:33.057Z,996.30
2018-02-11T05:44:32.927Z,996.30
2018-02-11T05:45:32.967Z,996.34
2018-02-11T05:46:32.870Z,996.32
2018-02-11T05:47:32.874Z,996.24
2018-02-11T05:48:32.803Z,996.28
2018-02-11T05:49:32.788Z,996.26
2018-02-11T05:50:32.743Z,996.25
2018-02-11T05:51:32.801Z,996.33
2018-02-11T05:52:32.685Z,996.22
2018-02-11T05:53:32.712Z,996.28
2018-02-11T05:54:32.625Z,996.26
2018-02-11T05:55:32.624Z,996.30
2018-02-11T05:56:32.565Z,996.26
2018-02-11T05:57:32.637Z,996.20
2018-02-11T05:58:32.504Z,996.20
2018-02-11T05:59:32.549Z,996.20
2018-02-11T06:00:32.446Z,996.34
2018-02-11T06:01:32.462Z,996.20
2018-02-11T06:02:32.382Z,996.17
2018-02-11T06:03:32.373Z,996.13
2018-02-11T06:04:32.325Z,996.09
2018-02-11T06:05:32.386Z,996.14
2018-02-11T06:06:32.263Z,996.08
2018-02-11T06:07:32.300Z,996.13
2018-02-11T06:08:32.195Z,996.08
2018-02-11T06:09:32.211Z,996.05
2018-02-11T06:10:32.149Z,996.08
2018-02-11T06:11:32.224Z,996.06
2018-02-11T06:12:32.083Z,995.93
2018-02-11T06:13:32.136Z,996.08
2018-02-11T06:14:32.026Z,996.02
2018-02-11T06:15:32.046Z,995.97
2018-02-11T06:16:31.962Z,995.96
2018-02-11T06:17:31.959Z,995.94
2018-02-11T06:18:31.902Z,996.05
2018-02-11T06:19:31.973Z,995.99
2018-02-11T06:20:31.857Z,996.01
2018-02-11T06:21:31.884Z,995.97
2018-02-11T06:22:31.784Z,995.97
2018-02-11T06:23:31.798Z,995.95
2018-02-11T06:24:31.722Z,996.03
2018-02-11T06:25:31.709Z,996.12
2018-02-11T06:26:31.657Z,996.10
2018-02-11T06:27:31.718Z,996.12
2018-02-11T06:28:31.603Z,996.10
2018-02-11T06:29:31.633Z,996.09
2018-02-11T06:30:31.542Z,996.14
2018-02-11T06:31:31.545Z,996.11
2018-02-11T06:32:31.481Z,996.16
2018-02-11T06:33:31.560Z,996.11
2018-02-11T06:34:31.423Z,996.13
2018-02-11T06:35:31.471Z,996.08
2018-02-11T06:36:31.359Z,996.06
2018-02-11T06:37:31.383Z,996.20
2018-02-11T06:38:31.305Z,996.14
2018-02-11T06:39:31.293Z,996.07
2018-02-11T06:40:31.240Z,996.13
2018-02-11T06:41:31.308Z,996.00
2018-02-11T06:42:31.184Z,996.05
2018-02-11T06:43:31.217Z,996.14
2018-02-11T06:44:31.121Z,996.01
2018-02-11T06:45:31.132Z,996.03
2018-02-11T06:46:31.059Z,995.92
2018-02-11T06:47:31.142Z,996.05
2018-02-11T06:48:31.002Z,996.03
2018-02-11T06:49:31.053Z,996.00
2018-02-11T06:50:30.941Z,996.08
2018-02-11T06:51:30.967Z,996.10
2018-02-11T06:52:30.882Z,996.09
2018-02-11T06:53:30.878Z,996.12
2018-02-11T06:54:30.823Z,995.96
2018-02-11T06:55:30.889Z,996.19
2018-02-11T06:56:30.763Z,996.10
2018-02-11T06:57:30.802Z,996.14
2018-02-11T06:58:30.703Z,996.13
2018-02-11T06:59:30.714Z,996.45
2018-02-11T07:00:30.661Z,996.22
2018-02-11T07:01:30.626Z,996.16
2018-02-11T07:02:30.583Z,996.16
2018-02-11T07:03:30.680Z,996.26
2018-02-11T07:04:30.525Z,996.21
2018-02-11T07:05:30.551Z,996.22
2018-02-11T07:06:30.463Z,996.22
2018-02-11T07:07:30.460Z,996.18
2018-02-11T07:08:30.403Z,996.21
2018-02-11T07:09:30.483Z,996.28
2018-02-11T07:10:30.342Z,996.22
2018-02-11T07:11:30.394Z,996.32
2018-02-11T07:12:30.286Z,996.32
2018-02-11T07:13:30.300Z,996.23
2018-02-11T07:14:30.226Z,996.25
2018-02-11T07:15:30.216Z,996.25
2018-02-11T07:16:30.165Z,996.23
2018-02-11T07:17:30.226Z,996.25
2018-02-11T07:18:30.111Z,996.30
2018-02-11T07:19:30.139Z,996.44
2018-02-11T07:20:30.047Z,996.34
2018-02-11T07:21:30.052Z,996.46
2018-02-11T07:22:29.987Z,996.39
2018-02-11T07:23:30.069Z,996.40
2018-02-11T07:24:29.926Z,996.38
2018-02-11T07:25:29.975Z,996.31
2018-02-11T07:26:29.868Z,996.37
2018-02-11T07:27:29.891Z,996.38
2018-02-11T07:28:29.810Z,996.49
2018-02-11T07:29:29.798Z,996.35
2018-02-11T07:30:29.749Z,996.35
2018-02-11T07:31:29.805Z,996.45
2018-02-11T07:32:29.696Z,996.41
2018-02-11T07:33:29.727Z,996.45
2018-02-11T07:34:29.686Z,996.42
2018-02-11T07:35:29.633Z,996.41
2018-02-11T07:36:29.577Z,996.45
2018-02-11T07:37:29.657Z,996.48
2018-02-11T07:38:29.512Z,996.58
2018-02-11T07:39:29.560Z,996.55
2018-02-11T07:40:29.453Z,996.45
2018-02-11T07:41:29.473Z,996.53
2018-02-11T07:42:29.397Z,996.62
2018-02-11T07:43:29.381Z,996.66
2018-02-11T07:44:29.339Z,996.69
2018-02-11T07:45:29.398Z,996.68
2018-02-11T07:46:29.274Z,996.69
2018-02-11T07:47:29.310Z,996.64
2018-02-11T07:48:29.215Z,996.77
2018-02-11T07:49:29.218Z,996.75
2018-02-11T07:50:29.158Z,996.69
2018-02-11T07:51:29.230Z,996.87
2018-02-11T07:52:29.095Z,996.74
2018-02-11T07:53:29.146Z,996.81
2018-02-11T07:54:29.040Z,996.75
2018-02-11T07:55:29.053Z,996.72
2018-02-11T07:56:28.978Z,996.76
2018-02-11T07:57:28.966Z,996.77
2018-02-11T07:58:28.923Z,996.73
2018-02-11T07:59:28.979Z,996.76
2018-02-11T08:00:28.860Z,996.69
2018-02-11T08:01:28.892Z,996.65
2018-02-11T08:02:28.798Z,996.73
2018-02-11T08:03:28.802Z,996.76
2018-02-11T08:04:28.740Z,996.79
2018-02-11T08:05:28.815Z,996.77
2018-02-11T08:06:28.694Z,996.81
2018-02-11T08:07:28.728Z,996.81
2018-02-11T08:08:28.625Z,996.75
2018-02-11T08:09:28.636Z,996.72
2018-02-11T08:10:28.574Z,996.80
2018-02-11T08:11:28.548Z,996.79
2018-02-11T08:12:28.507Z,996.76
2018-02-11T08:13:28.565Z,996.82
2018-02-11T08:14:28.445Z,996.82
2018-02-11T08:15:28.477Z,996.80
2018-02-11T08:16:28.386Z,996.76
2018-02-11T08:17:28.385Z,996.79
2018-02-11T08:18:28.329Z,996.82
2018-02-11T08:19:28.400Z,996.84
2018-02-11T08:20:28.268Z,996.84
2018-02-11T08:21:28.316Z,996.83
2018-02-11T08:22:28.209Z,996.94
2018-02-11T08:23:28.222Z,996.70
2018-02-11T08:24:28.151Z,996.75
2018-02-11T08:25:28.135Z,996.81
2018-02-11T08:26:28.090Z,996.86
2018-02-11T08:27:28.152Z,996.82
2018-02-11T08:28:28.042Z,996.88
2018-02-11T08:29:28.061Z,996.83
2018-02-11T08:30:27.974Z,996.84
2018-02-11T08:31:27.974Z,996.91
2018-02-11T08:32:27.925Z,996.98
2018-02-11T08:33:27.981Z,996.93
2018-02-11T08:34:27.856Z,996.95
2018-02-11T08:35:27.898Z,996.98
2018-02-11T08:36:27.794Z,996.96
2018-02-11T08:37:27.810Z,996.95
2018-02-11T08:38:27.742Z,996.96
2018-02-11T08:39:27.824Z,996.96
2018-02-11T08:40:27.682Z,996.97
2018-02-11T08:41:27.726Z,997.00
2018-02-11T08:42:27.624Z,996.92
2018-02-11T08:43:27.646Z,996.95
2018-02-11T08:44:27.569Z,997.01
2018-02-11T08:45:27.557Z,996.96
2018-02-11T08:46:27.507Z,996.87
2018-02-11T08:47:27.571Z,996.97
2018-02-11T08:48:27.448Z,997.04
2018-02-11T08:49:27.481Z,996.94
2018-02-11T08:50:27.384Z,997.03
2018-02-11T08:51:27.392Z,996.92
2018-02-11T08:52:27.399Z,997.04
2018-02-11T08:53:27.304Z,997.00
2018-02-11T08:54:27.420Z,997.11
2018-02-11T08:55:27.247Z,997.05
2018-02-11T08:56:27.320Z,997.14
2018-02-11T08:57:27.188Z,997.07
2018-02-11T08:58:27.163Z,997.09
2018-02-11T08:59:27.250Z,997.17
2018-02-11T09:00:27.110Z,997.14
2018-02-11T09:01:27.156Z,997.06
2018-02-11T09:02:27.040Z,997.17
2018-02-11T09:03:27.168Z,997.14
2018-02-11T09:04:26.986Z,997.06
2018-02-11T09:05:27.084Z,997.06
2018-02-11T09:06:26.929Z,997.03
2018-02-11T09:07:26.989Z,997.06
2018-02-11T09:08:26.872Z,997.05
2018-02-11T09:09:26.906Z,997.04
2018-02-11T09:10:26.814Z,997.03
2018-02-11T09:11:26.925Z,997.04
2018-02-11T09:12:26.776Z,996.99
2018-02-11T09:13:26.877Z,996.94
2018-02-11T09:14:26.700Z,997.04
2018-02-11T09:15:26.741Z,997.08
2018-02-11T09:16:26.637Z,997.05
2018-02-11T09:17:26.758Z,997.01
2018-02-11T09:18:26.588Z,996.93
2018-02-11T09:19:26.671Z,996.92
2018-02-11T09:20:26.536Z,996.99
2018-02-11T09:21:26.580Z,996.99
2018-02-11T09:22:26.469Z,997.05
2018-02-11T09:23:26.594Z,997.00
2018-02-11T09:24:26.412Z,996.96
2018-02-11T09:25:26.505Z,997.07
2018-02-11T09:26:26.357Z,997.01
2018-02-11T09:27:26.420Z,997.04
2018-02-11T09:28:26.296Z,997.04
2018-02-11T09:29:26.439Z,997.01
2018-02-11T09:30:26.241Z,997.08
2018-02-11T09:31:26.238Z,997.07
2018-02-11T09:32:26.183Z,997.11
2018-02-11T09:33:26.248Z,997.11
2018-02-11T09:34:26.127Z,997.15
2018-02-11T09:35:26.259Z,997.16
2018-02-11T09:36:26.067Z,997.09
2018-02-11T09:37:26.178Z,997.25
2018-02-11T09:38:26.019Z,997.67
2018-02-11T09:39:26.090Z,997.74
2018-02-11T09:40:25.957Z,997.36
2018-02-11T09:41:26.104Z,997.39
2018-02-11T09:42:25.904Z,997.31
2018-02-11T09:43:26.020Z,997.66
2018-02-11T09:44:25.850Z,997.59
2018-02-11T09:45:25.926Z,997.37
2018-02-11T09:46:25.799Z,997.26
2018-02-11T09:47:25.946Z,997.24
2018-02-11T09:48:25.745Z,997.29
2018-02-11T09:49:25.854Z,997.28
2018-02-11T09:50:25.700Z,997.28
2018-02-11T09:51:25.764Z,997.26
2018-02-11T09:52:25.640Z,997.27
2018-02-11T09:53:25.779Z,997.20
2018-02-11T09:54:25.594Z,997.21
2018-02-11T09:55:25.692Z,997.13
2018-02-11T09:56:25.537Z,997.14
2018-02-11T09:57:25.702Z,997.05
2018-02-11T09:58:25.474Z,997.10
2018-02-11T09:59:25.613Z,997.22
2018-02-11T10:00:25.434Z,997.19
2018-02-11T10:01:25.526Z,997.18
2018-02-11T10:02:25.376Z,997.19
2018-02-11T10:03:25.540Z,997.19
2018-02-11T10:04:25.322Z,997.29
2018-02-11T10:05:25.451Z,997.24
2018-02-11T10:06:25.271Z,997.27
2018-02-11T10:07:25.355Z,997.30
2018-02-11T10:08:25.233Z,997.29
2018-02-11T10:09:25.192Z,997.29
2018-02-11T10:10:25.193Z,997.24
2018-02-11T10:11:25.136Z,997.25
2018-02-11T10:12:25.206Z,997.32
2018-02-11T10:13:25.083Z,997.32
2018-02-11T10:14:25.055Z,997.33
2018-02-11T10:15:25.029Z,997.29
2018-02-11T10:16:25.024Z,997.35
2018-02-11T10:17:24.970Z,997.33
2018-02-11T10:18:25.038Z,997.24
2018-02-11T10:19:24.915Z,997.28
2018-02-11T10:20:24.947Z,997.32
2018-02-11T10:21:24.873Z,997.29
2018-02-11T10:22:24.862Z,997.36
2018-02-11T10:23:24.809Z,997.28
2018-02-11T10:24:24.883Z,997.36
2018-02-11T10:25:24.752Z,997.40
2018-02-11T10:26:24.772Z,997.49
2018-02-11T10:27:24.719Z,997.43
2018-02-11T10:28:24.691Z,997.39
2018-02-11T10:29:24.647Z,997.31
2018-02-11T10:30:24.703Z,997.31
2018-02-11T10:31:24.585Z,997.27
2018-02-11T10:32:24.614Z,997.41
2018-02-11T10:33:24.533Z,997.40
2018-02-11T10:34:24.524Z,997.44
2018-02-11T10:35:24.480Z,997.57
2018-02-11T10:36:24.533Z,997.73
2018-02-11T10:37:24.421Z,997.30
2018-02-11T10:38:24.444Z,997.47
2018-02-11T10:39:24.369Z,997.52
2018-02-11T10:40:24.356Z,997.44
2018-02-11T10:41:24.312Z,997.42
2018-02-11T10:42:24.366Z,997.43
2018-02-11T10:43:24.251Z,997.45
2018-02-11T10:44:24.278Z,997.43
2018-02-11T10:45:24.205Z,997.43
2018-02-11T10:46:24.187Z,997.47
2018-02-11T10:47:24.145Z,997.56
2018-02-11T10:48:24.198Z,997.56
2018-02-11T10:49:24.089Z,997.53
2018-02-11T10:50:24.109Z,997.63
2018-02-11T10:51:24.042Z,997.69
2018-02-11T10:52:24.020Z,997.73
2018-02-11T10:53:23.978Z,997.66
2018-02-11T10:54:24.036Z,997.75
2018-02-11T10:55:23.929Z,997.74
2018-02-11T10:56:23.948Z,997.75
2018-02-11T10:57:23.868Z,997.79
2018-02-11T10:58:23.847Z,997.88
2018-02-11T10:59:23.813Z,997.93
2018-02-11T11:00:23.865Z,997.82
2018-02-11T11:01:23.784Z,997.67
2018-02-11T11:02:23.776Z,997.55
2018-02-11T11:03:23.700Z,997.56
2018-02-11T11:04:23.677Z,997.51
2018-02-11T11:05:23.643Z,997.52
2018-02-11T11:06:23.699Z,997.52
2018-02-11T11:07:23.591Z,997.58
2018-02-11T11:08:23.606Z,997.54
2018-02-11T11:09:23.532Z,997.54
2018-02-11T11:10:23.516Z,997.49
2018-02-11T11:11:23.474Z,997.52
2018-02-11T11:12:23.530Z,997.41
2018-02-11T11:13:23.418Z,997.45
2018-02-11T11:14:23.440Z,997.38
2018-02-11T11:15:23.363Z,997.43
2018-02-11T11:16:23.349Z,997.45
2018-02-11T11:17:23.304Z,997.48
2018-02-11T11:18:23.364Z,997.46
2018-02-11T11:19:23.249Z,997.47
2018-02-11T11:20:23.272Z,997.49
2018-02-11T11:21:23.194Z,997.54
2018-02-11T11:22:23.182Z,997.53
2018-02-11T11:23:23.135Z,997.46
2018-02-11T11:24:23.197Z,997.42
2018-02-11T11:25:23.084Z,997.52
2018-02-11T11:26:23.111Z,997.48
2018-02-11T11:27:23.021Z,997.53
2018-02-11T11:28:23.023Z,997.49
2018-02-11T11:29:22.974Z,997.50
2018-02-11T11:30:23.030Z,997.53
2018-02-11T11:31:22.913Z,997.47
2018-02-11T11:32:22.939Z,997.45
2018-02-11T11:33:22.853Z,997.45
2018-02-11T11:34:22.852Z,997.52
2018-02-11T11:35:22.797Z,997.54
2018-02-11T11:36:22.861Z,997.50
2018-02-11T11:37:22.793Z,997.54
2018-02-11T11:38:22.772Z,997.55
2018-02-11T11:39:22.685Z,997.47
2018-02-11T11:40:22.684Z,997.53
2018-02-11T11:41:22.632Z,997.55
2018-02-11T11:42:22.697Z,997.53
2018-02-11T11:43:22.571Z,997.49
2018-02-11T11:44:22.629Z,997.53
2018-02-11T11:45:22.517Z,997.52
2018-02-11T11:46:22.510Z,997.49
2018-02-11T11:47:22.459Z,997.57
2018-02-11T11:48:22.526Z,997.62
2018-02-11T11:49:22.403Z,997.64
2018-02-11T11:50:22.435Z,997.67
2018-02-11T11:51:22.347Z,997.60
2018-02-11T11:52:22.345Z,997.57
2018-02-11T11:53:22.290Z,997.66
2018-02-11T11:54:22.361Z,997.67
2018-02-11T11:55:22.236Z,997.63
2018-02-11T11:56:22.296Z,997.60
2018-02-11T11:57:22.177Z,997.71
2018-02-11T11:58:22.180Z,997.65
2018-02-11T11:59:22.122Z,997.68
2018-02-11T12:00:22.192Z,997.65
2018-02-11T12:01:22.074Z,997.74
2018-02-11T12:02:22.060Z,997.75
2018-02-11T12:03:22.108Z,997.66
2018-02-11T12:04:21.984Z,997.81
2018-02-11T12:05:22.020Z,997.72
2018-02-11T12:06:21.936Z,997.74
2018-02-11T12:07:21.930Z,997.80
2018-02-11T12:08:21.870Z,997.81
2018-02-11T12:09:21.941Z,997.94
2018-02-11T12:10:21.817Z,997.73
2018-02-11T12:11:21.855Z,997.78
2018-02-11T12:12:21.768Z,997.81
2018-02-11T12:13:21.762Z,997.72
2018-02-11T12:14:21.703Z,997.72
2018-02-11T12:15:21.776Z,997.81
2018-02-11T12:16:21.649Z,997.83
2018-02-11T12:17:21.717Z,997.71
2018-02-11T12:18:21.592Z,997.92
2018-02-11T12:19:21.593Z,997.77
2018-02-11T12:20:21.536Z,997.75
2018-02-11T12:21:21.606Z,997.79
2018-02-11T12:22:21.481Z,997.77
2018-02-11T12:23:21.517Z,997.83